Weather at Sangkulirang Airport

Public forecast

Using degrees Celsius for public forecast. Weather courtesy of forecast.io.

Closest aviation weather report (METAR) to Sangkulirang Airport

Closest report is Sibu Airport, 368.6 nm (682.7 km) WNW.

2024/07/14 17:00 (retrieved 23 minutes ago)

WBGS 141700Z 00000KT 9999 SCT018 26/25 Q1008

Closest aviation forecast (TAF) to Sangkulirang Airport

Closest forecast is Aji Pangeran Tumenggung Pranoto International Airport, 93.9 nm (174.0 km) SSW.

2024/07/14 12:00 (retrieved 5 hours ago)

TAF WALL 141100Z 1412/1518 24006KT 9999 FEW020 TAF WALS 141100Z 1412/1424 18003KT 9999 SCT020